sensor_id;sensor_type;location;lat;lon;timestamp;P1;durP1;ratioP1;P2;durP2;ratioP2
1276;SDS011;631;51.024;13.826;2023-12-28T00:01:24;14.30;;;13.30;;
1276;SDS011;631;51.024;13.826;2023-12-28T00:03:50;15.57;;;14.47;;
1276;SDS011;631;51.024;13.826;2023-12-28T00:06:16;15.63;;;14.63;;
1276;SDS011;631;51.024;13.826;2023-12-28T00:08:42;15.20;;;14.20;;
1276;SDS011;631;51.024;13.826;2023-12-28T00:11:07;13.67;;;12.73;;
1276;SDS011;631;51.024;13.826;2023-12-28T00:13:33;14.23;;;13.23;;
1276;SDS011;631;51.024;13.826;2023-12-28T00:15:59;14.73;;;13.47;;
1276;SDS011;631;51.024;13.826;2023-12-28T00:18:24;14.57;;;13.67;;
1276;SDS011;631;51.024;13.826;2023-12-28T00:20:50;15.33;;;14.13;;
1276;SDS011;631;51.024;13.826;2023-12-28T00:23:16;15.13;;;14.00;;
1276;SDS011;631;51.024;13.826;2023-12-28T00:25:42;14.53;;;13.43;;
1276;SDS011;631;51.024;13.826;2023-12-28T00:28:08;14.73;;;13.63;;
1276;SDS011;631;51.024;13.826;2023-12-28T00:30:33;15.17;;;14.20;;
1276;SDS011;631;51.024;13.826;2023-12-28T00:32:59;14.73;;;13.53;;
1276;SDS011;631;51.024;13.826;2023-12-28T00:35:25;14.03;;;13.23;;
1276;SDS011;631;51.024;13.826;2023-12-28T00:37:50;14.27;;;13.17;;
1276;SDS011;631;51.024;13.826;2023-12-28T00:40:16;14.63;;;13.73;;
1276;SDS011;631;51.024;13.826;2023-12-28T00:42:41;14.10;;;13.10;;
1276;SDS011;631;51.024;13.826;2023-12-28T00:45:08;14.20;;;13.40;;
1276;SDS011;631;51.024;13.826;2023-12-28T00:47:34;14.60;;;13.50;;
1276;SDS011;631;51.024;13.826;2023-12-28T00:50:00;13.90;;;13.00;;
1276;SDS011;631;51.024;13.826;2023-12-28T00:52:25;14.23;;;13.23;;
1276;SDS011;631;51.024;13.826;2023-12-28T00:54:51;14.27;;;13.37;;
1276;SDS011;631;51.024;13.826;2023-12-28T00:57:17;13.97;;;13.10;;
1276;SDS011;631;51.024;13.826;2023-12-28T00:59:42;14.60;;;13.60;;
1276;SDS011;631;51.024;13.826;2023-12-28T01:02:08;14.10;;;13.10;;
1276;SDS011;631;51.024;13.826;2023-12-28T01:04:34;13.53;;;12.63;;
1276;SDS011;631;51.024;13.826;2023-12-28T01:07:00;14.53;;;13.57;;
1276;SDS011;631;51.024;13.826;2023-12-28T01:09:27;14.40;;;13.40;;
1276;SDS011;631;51.024;13.826;2023-12-28T01:11:53;14.23;;;13.23;;
1276;SDS011;631;51.024;13.826;2023-12-28T01:14:19;15.00;;;13.83;;
1276;SDS011;631;51.024;13.826;2023-12-28T01:16:44;15.40;;;14.30;;
1276;SDS011;631;51.024;13.826;2023-12-28T01:19:10;14.40;;;13.50;;
1276;SDS011;631;51.024;13.826;2023-12-28T01:21:36;13.83;;;12.87;;
1276;SDS011;631;51.024;13.826;2023-12-28T01:24:02;13.70;;;12.77;;
1276;SDS011;631;51.024;13.826;2023-12-28T01:26:28;13.87;;;12.97;;
1276;SDS011;631;51.024;13.826;2023-12-28T01:28:53;14.40;;;13.40;;
1276;SDS011;631;51.024;13.826;2023-12-28T01:31:19;14.67;;;13.57;;
1276;SDS011;631;51.024;13.826;2023-12-28T01:33:45;14.17;;;13.27;;
1276;SDS011;631;51.024;13.826;2023-12-28T01:36:17;13.83;;;13.03;;
1276;SDS011;631;51.024;13.826;2023-12-28T01:38:44;15.33;;;14.23;;
1276;SDS011;631;51.024;13.826;2023-12-28T01:41:10;14.50;;;13.57;;
1276;SDS011;631;51.024;13.826;2023-12-28T01:43:35;15.30;;;14.10;;
1276;SDS011;631;51.024;13.826;2023-12-28T01:46:01;15.00;;;14.00;;
1276;SDS011;631;51.024;13.826;2023-12-28T01:48:27;14.77;;;13.67;;
1276;SDS011;631;51.024;13.826;2023-12-28T01:50:53;14.73;;;13.73;;
1276;SDS011;631;51.024;13.826;2023-12-28T01:53:20;15.30;;;14.10;;
1276;SDS011;631;51.024;13.826;2023-12-28T01:55:46;15.37;;;14.20;;
1276;SDS011;631;51.024;13.826;2023-12-28T01:58:11;15.70;;;14.70;;
1276;SDS011;631;51.024;13.826;2023-12-28T02:00:37;14.90;;;13.93;;
1276;SDS011;631;51.024;13.826;2023-12-28T02:03:04;15.17;;;13.87;;
1276;SDS011;631;51.024;13.826;2023-12-28T02:05:31;14.13;;;13.30;;
1276;SDS011;631;51.024;13.826;2023-12-28T02:07:58;14.37;;;13.27;;
1276;SDS011;631;51.024;13.826;2023-12-28T02:10:23;13.90;;;13.10;;
1276;SDS011;631;51.024;13.826;2023-12-28T02:12:49;13.97;;;13.10;;
1276;SDS011;631;51.024;13.826;2023-12-28T02:15:15;14.07;;;13.17;;
1276;SDS011;631;51.024;13.826;2023-12-28T02:17:47;13.73;;;12.83;;
1276;SDS011;631;51.024;13.826;2023-12-28T02:20:32;15.10;;;14.00;;
1276;SDS011;631;51.024;13.826;2023-12-28T02:22:58;14.20;;;13.30;;
1276;SDS011;631;51.024;13.826;2023-12-28T02:25:24;14.00;;;13.00;;
1276;SDS011;631;51.024;13.826;2023-12-28T02:27:49;14.73;;;13.73;;
1276;SDS011;631;51.024;13.826;2023-12-28T02:30:16;13.83;;;12.93;;
1276;SDS011;631;51.024;13.826;2023-12-28T02:36:02;13.70;;;12.90;;
1276;SDS011;631;51.024;13.826;2023-12-28T02:38:27;13.87;;;12.97;;
1276;SDS011;631;51.024;13.826;2023-12-28T02:40:55;14.13;;;13.13;;
1276;SDS011;631;51.024;13.826;2023-12-28T02:43:22;14.23;;;13.30;;
1276;SDS011;631;51.024;13.826;2023-12-28T02:45:48;13.57;;;12.77;;
1276;SDS011;631;51.024;13.826;2023-12-28T02:48:13;13.30;;;12.50;;
1276;SDS011;631;51.024;13.826;2023-12-28T02:50:39;12.70;;;11.90;;
1276;SDS011;631;51.024;13.826;2023-12-28T02:53:05;13.40;;;12.60;;
1276;SDS011;631;51.024;13.826;2023-12-28T02:55:30;13.50;;;12.63;;
1276;SDS011;631;51.024;13.826;2023-12-28T02:57:57;13.20;;;12.40;;
1276;SDS011;631;51.024;13.826;2023-12-28T03:00:26;12.90;;;12.10;;
1276;SDS011;631;51.024;13.826;2023-12-28T03:02:52;12.40;;;11.70;;
1276;SDS011;631;51.024;13.826;2023-12-28T03:05:18;13.13;;;12.23;;
1276;SDS011;631;51.024;13.826;2023-12-28T03:07:44;13.13;;;12.43;;
1276;SDS011;631;51.024;13.826;2023-12-28T03:10:10;13.80;;;13.00;;
1276;SDS011;631;51.024;13.826;2023-12-28T03:12:36;13.33;;;12.53;;
1276;SDS011;631;51.024;13.826;2023-12-28T03:15:02;13.20;;;12.40;;
1276;SDS011;631;51.024;13.826;2023-12-28T03:17:29;13.30;;;12.40;;
1276;SDS011;631;51.024;13.826;2023-12-28T03:19:55;13.47;;;12.67;;
1276;SDS011;631;51.024;13.826;2023-12-28T03:22:22;12.90;;;12.20;;
1276;SDS011;631;51.024;13.826;2023-12-28T03:24:47;12.97;;;12.30;;
1276;SDS011;631;51.024;13.826;2023-12-28T03:27:14;13.13;;;12.33;;
1276;SDS011;631;51.024;13.826;2023-12-28T03:29:40;13.37;;;12.57;;
1276;SDS011;631;51.024;13.826;2023-12-28T03:32:07;13.00;;;12.20;;
1276;SDS011;631;51.024;13.826;2023-12-28T03:34:33;12.83;;;12.03;;
1276;SDS011;631;51.024;13.826;2023-12-28T03:36:59;12.23;;;11.60;;
1276;SDS011;631;51.024;13.826;2023-12-28T03:39:24;13.03;;;12.33;;
1276;SDS011;631;51.024;13.826;2023-12-28T03:41:50;12.80;;;12.10;;
1276;SDS011;631;51.024;13.826;2023-12-28T03:44:18;12.63;;;11.93;;
1276;SDS011;631;51.024;13.826;2023-12-28T03:46:45;12.53;;;11.93;;
1276;SDS011;631;51.024;13.826;2023-12-28T03:49:12;13.53;;;12.73;;
1276;SDS011;631;51.024;13.826;2023-12-28T03:51:41;13.03;;;12.33;;
1276;SDS011;631;51.024;13.826;2023-12-28T03:54:07;12.97;;;12.17;;
1276;SDS011;631;51.024;13.826;2023-12-28T03:56:32;13.03;;;12.33;;
1276;SDS011;631;51.024;13.826;2023-12-28T03:59:00;13.67;;;12.77;;
1276;SDS011;631;51.024;13.826;2023-12-28T04:01:26;13.73;;;12.73;;
1276;SDS011;631;51.024;13.826;2023-12-28T04:03:52;13.47;;;12.67;;
1276;SDS011;631;51.024;13.826;2023-12-28T04:06:17;13.40;;;12.50;;
1276;SDS011;631;51.024;13.826;2023-12-28T04:08:43;13.63;;;12.83;;
1276;SDS011;631;51.024;13.826;2023-12-28T04:11:09;13.20;;;12.40;;
1276;SDS011;631;51.024;13.826;2023-12-28T04:13:35;13.30;;;12.50;;
1276;SDS011;631;51.024;13.826;2023-12-28T04:16:01;12.53;;;11.80;;
1276;SDS011;631;51.024;13.826;2023-12-28T04:18:27;12.50;;;11.80;;
1276;SDS011;631;51.024;13.826;2023-12-28T04:20:53;13.50;;;12.50;;
1276;SDS011;631;51.024;13.826;2023-12-28T04:23:19;13.53;;;12.73;;
1276;SDS011;631;51.024;13.826;2023-12-28T04:25:45;13.57;;;12.67;;
1276;SDS011;631;51.024;13.826;2023-12-28T04:28:10;13.00;;;12.10;;
1276;SDS011;631;51.024;13.826;2023-12-28T04:30:36;12.90;;;12.20;;
1276;SDS011;631;51.024;13.826;2023-12-28T04:33:02;14.07;;;13.17;;
1276;SDS011;631;51.024;13.826;2023-12-28T04:35:28;13.57;;;12.77;;
1276;SDS011;631;51.024;13.826;2023-12-28T04:37:54;12.83;;;12.13;;
1276;SDS011;631;51.024;13.826;2023-12-28T04:40:20;13.47;;;12.60;;
1276;SDS011;631;51.024;13.826;2023-12-28T04:42:45;13.53;;;12.73;;
1276;SDS011;631;51.024;13.826;2023-12-28T04:45:11;12.63;;;11.93;;
1276;SDS011;631;51.024;13.826;2023-12-28T04:47:37;13.23;;;12.43;;
1276;SDS011;631;51.024;13.826;2023-12-28T04:50:03;13.00;;;12.20;;
1276;SDS011;631;51.024;13.826;2023-12-28T04:52:30;13.63;;;12.73;;
1276;SDS011;631;51.024;13.826;2023-12-28T04:54:56;13.63;;;12.73;;
1276;SDS011;631;51.024;13.826;2023-12-28T04:57:22;12.00;;;11.40;;
1276;SDS011;631;51.024;13.826;2023-12-28T04:59:50;12.20;;;11.40;;
1276;SDS011;631;51.024;13.826;2023-12-28T05:02:16;12.90;;;11.73;;
1276;SDS011;631;51.024;13.826;2023-12-28T05:04:42;12.10;;;11.40;;
1276;SDS011;631;51.024;13.826;2023-12-28T05:07:08;13.23;;;12.53;;
1276;SDS011;631;51.024;13.826;2023-12-28T05:09:33;12.57;;;11.77;;
1276;SDS011;631;51.024;13.826;2023-12-28T05:11:59;12.50;;;11.80;;
1276;SDS011;631;51.024;13.826;2023-12-28T05:14:25;12.73;;;11.93;;
1276;SDS011;631;51.024;13.826;2023-12-28T05:16:50;11.90;;;11.30;;
1276;SDS011;631;51.024;13.826;2023-12-28T05:19:16;13.07;;;12.37;;
1276;SDS011;631;51.024;13.826;2023-12-28T05:21:41;12.40;;;11.77;;
1276;SDS011;631;51.024;13.826;2023-12-28T05:24:07;13.27;;;12.40;;
1276;SDS011;631;51.024;13.826;2023-12-28T05:26:33;13.50;;;12.70;;
1276;SDS011;631;51.024;13.826;2023-12-28T05:28:59;13.27;;;12.47;;
1276;SDS011;631;51.024;13.826;2023-12-28T05:31:24;12.90;;;12.10;;
1276;SDS011;631;51.024;13.826;2023-12-28T05:33:50;13.10;;;12.30;;
1276;SDS011;631;51.024;13.826;2023-12-28T05:36:16;12.50;;;11.80;;
1276;SDS011;631;51.024;13.826;2023-12-28T05:38:41;13.63;;;12.90;;
1276;SDS011;631;51.024;13.826;2023-12-28T05:41:09;12.03;;;11.43;;
1276;SDS011;631;51.024;13.826;2023-12-28T05:43:35;12.70;;;12.00;;
1276;SDS011;631;51.024;13.826;2023-12-28T05:46:01;12.60;;;11.90;;
1276;SDS011;631;51.024;13.826;2023-12-28T05:48:26;13.50;;;12.70;;
1276;SDS011;631;51.024;13.826;2023-12-28T05:50:52;13.73;;;12.63;;
1276;SDS011;631;51.024;13.826;2023-12-28T05:53:17;12.33;;;11.73;;
1276;SDS011;631;51.024;13.826;2023-12-28T05:55:43;13.33;;;12.60;;
1276;SDS011;631;51.024;13.826;2023-12-28T05:58:09;13.20;;;12.40;;
1276;SDS011;631;51.024;13.826;2023-12-28T06:00:35;13.00;;;12.30;;
1276;SDS011;631;51.024;13.826;2023-12-28T06:03:04;13.30;;;12.40;;
1276;SDS011;631;51.024;13.826;2023-12-28T06:05:30;14.80;;;13.80;;
1276;SDS011;631;51.024;13.826;2023-12-28T06:07:56;13.40;;;12.60;;
1276;SDS011;631;51.024;13.826;2023-12-28T06:10:22;14.33;;;13.53;;
1276;SDS011;631;51.024;13.826;2023-12-28T06:12:49;13.50;;;12.70;;
1276;SDS011;631;51.024;13.826;2023-12-28T06:15:14;13.00;;;12.20;;
1276;SDS011;631;51.024;13.826;2023-12-28T06:17:40;13.20;;;12.50;;
1276;SDS011;631;51.024;13.826;2023-12-28T06:20:06;13.07;;;12.20;;
1276;SDS011;631;51.024;13.826;2023-12-28T06:22:33;13.50;;;12.60;;
1276;SDS011;631;51.024;13.826;2023-12-28T06:24:59;13.67;;;12.67;;
1276;SDS011;631;51.024;13.826;2023-12-28T06:27:24;13.23;;;12.33;;
1276;SDS011;631;51.024;13.826;2023-12-28T06:29:50;13.33;;;12.50;;
1276;SDS011;631;51.024;13.826;2023-12-28T06:32:16;13.23;;;12.27;;
1276;SDS011;631;51.024;13.826;2023-12-28T06:34:41;12.67;;;11.90;;
1276;SDS011;631;51.024;13.826;2023-12-28T06:37:07;12.93;;;12.13;;
1276;SDS011;631;51.024;13.826;2023-12-28T06:39:32;13.03;;;12.23;;
1276;SDS011;631;51.024;13.826;2023-12-28T06:41:58;13.57;;;12.67;;
1276;SDS011;631;51.024;13.826;2023-12-28T06:44:23;13.27;;;12.57;;
1276;SDS011;631;51.024;13.826;2023-12-28T06:46:49;14.33;;;13.43;;
1276;SDS011;631;51.024;13.826;2023-12-28T06:49:15;13.27;;;12.47;;
1276;SDS011;631;51.024;13.826;2023-12-28T06:51:40;12.57;;;11.87;;
1276;SDS011;631;51.024;13.826;2023-12-28T06:54:08;13.50;;;12.80;;
1276;SDS011;631;51.024;13.826;2023-12-28T06:56:34;14.10;;;13.20;;
1276;SDS011;631;51.024;13.826;2023-12-28T06:58:59;13.83;;;13.00;;
1276;SDS011;631;51.024;13.826;2023-12-28T07:01:25;13.53;;;12.63;;
1276;SDS011;631;51.024;13.826;2023-12-28T07:03:51;13.50;;;12.60;;
1276;SDS011;631;51.024;13.826;2023-12-28T07:06:17;13.00;;;12.20;;
1276;SDS011;631;51.024;13.826;2023-12-28T07:08:42;12.60;;;11.70;;
1276;SDS011;631;51.024;13.826;2023-12-28T07:11:11;13.27;;;12.47;;
1276;SDS011;631;51.024;13.826;2023-12-28T07:13:37;12.13;;;11.43;;
1276;SDS011;631;51.024;13.826;2023-12-28T07:16:03;12.60;;;11.80;;
1276;SDS011;631;51.024;13.826;2023-12-28T07:18:29;13.17;;;12.27;;
1276;SDS011;631;51.024;13.826;2023-12-28T07:20:54;11.60;;;11.00;;
1276;SDS011;631;51.024;13.826;2023-12-28T07:23:20;12.50;;;11.80;;
1276;SDS011;631;51.024;13.826;2023-12-28T07:25:45;12.80;;;12.20;;
1276;SDS011;631;51.024;13.826;2023-12-28T07:28:11;11.90;;;11.13;;
1276;SDS011;631;51.024;13.826;2023-12-28T07:30:37;11.70;;;11.10;;
1276;SDS011;631;51.024;13.826;2023-12-28T07:33:03;12.30;;;11.60;;
1276;SDS011;631;51.024;13.826;2023-12-28T07:35:29;12.40;;;11.67;;
1276;SDS011;631;51.024;13.826;2023-12-28T07:37:54;11.67;;;11.07;;
1276;SDS011;631;51.024;13.826;2023-12-28T07:40:20;11.77;;;11.17;;
1276;SDS011;631;51.024;13.826;2023-12-28T07:42:46;11.43;;;10.80;;
1276;SDS011;631;51.024;13.826;2023-12-28T07:45:11;10.97;;;10.40;;
1276;SDS011;631;51.024;13.826;2023-12-28T07:47:37;11.63;;;11.03;;
1276;SDS011;631;51.024;13.826;2023-12-28T07:50:03;12.27;;;11.40;;
1276;SDS011;631;51.024;13.826;2023-12-28T07:52:29;12.00;;;11.40;;
1276;SDS011;631;51.024;13.826;2023-12-28T07:54:55;12.60;;;11.80;;
1276;SDS011;631;51.024;13.826;2023-12-28T07:57:20;11.53;;;10.90;;
1276;SDS011;631;51.024;13.826;2023-12-28T07:59:46;11.00;;;10.50;;
1276;SDS011;631;51.024;13.826;2023-12-28T08:02:12;11.63;;;11.03;;
1276;SDS011;631;51.024;13.826;2023-12-28T08:04:37;10.87;;;10.37;;
1276;SDS011;631;51.024;13.826;2023-12-28T08:07:03;11.63;;;11.03;;
1276;SDS011;631;51.024;13.826;2023-12-28T08:09:29;11.70;;;11.13;;
1276;SDS011;631;51.024;13.826;2023-12-28T08:11:55;10.80;;;10.30;;
1276;SDS011;631;51.024;13.826;2023-12-28T08:14:21;12.30;;;11.60;;
1276;SDS011;631;51.024;13.826;2023-12-28T08:16:46;11.67;;;11.07;;
1276;SDS011;631;51.024;13.826;2023-12-28T08:19:12;11.30;;;10.80;;
1276;SDS011;631;51.024;13.826;2023-12-28T08:21:38;10.83;;;10.33;;
1276;SDS011;631;51.024;13.826;2023-12-28T08:24:03;11.30;;;10.77;;
1276;SDS011;631;51.024;13.826;2023-12-28T08:26:29;12.10;;;11.53;;
1276;SDS011;631;51.024;13.826;2023-12-28T08:28:55;11.50;;;10.90;;
1276;SDS011;631;51.024;13.826;2023-12-28T08:31:21;10.90;;;10.40;;
1276;SDS011;631;51.024;13.826;2023-12-28T08:33:46;10.80;;;10.30;;
1276;SDS011;631;51.024;13.826;2023-12-28T08:36:12;11.53;;;10.93;;
1276;SDS011;631;51.024;13.826;2023-12-28T08:38:38;11.53;;;10.93;;
1276;SDS011;631;51.024;13.826;2023-12-28T08:41:04;11.70;;;11.10;;
1276;SDS011;631;51.024;13.826;2023-12-28T08:43:34;11.80;;;11.20;;
1276;SDS011;631;51.024;13.826;2023-12-28T08:46:02;10.87;;;10.27;;
1276;SDS011;631;51.024;13.826;2023-12-28T08:48:28;10.13;;;9.60;;
1276;SDS011;631;51.024;13.826;2023-12-28T08:50:54;10.90;;;10.40;;
1276;SDS011;631;51.024;13.826;2023-12-28T08:53:19;10.90;;;10.37;;
1276;SDS011;631;51.024;13.826;2023-12-28T08:55:45;11.23;;;10.63;;
1276;SDS011;631;51.024;13.826;2023-12-28T08:58:10;11.87;;;11.27;;
1276;SDS011;631;51.024;13.826;2023-12-28T09:00:36;10.00;;;9.50;;
1276;SDS011;631;51.024;13.826;2023-12-28T09:03:02;11.33;;;10.43;;
1276;SDS011;631;51.024;13.826;2023-12-28T09:05:28;11.97;;;11.37;;
1276;SDS011;631;51.024;13.826;2023-12-28T09:07:53;11.57;;;10.90;;
1276;SDS011;631;51.024;13.826;2023-12-28T09:10:19;11.53;;;10.93;;
1276;SDS011;631;51.024;13.826;2023-12-28T09:12:44;10.83;;;10.33;;
1276;SDS011;631;51.024;13.826;2023-12-28T09:15:10;10.03;;;9.63;;
1276;SDS011;631;51.024;13.826;2023-12-28T09:17:36;11.40;;;10.80;;
1276;SDS011;631;51.024;13.826;2023-12-28T09:20:02;11.20;;;10.70;;
1276;SDS011;631;51.024;13.826;2023-12-28T09:22:28;11.23;;;10.63;;
1276;SDS011;631;51.024;13.826;2023-12-28T09:24:54;11.70;;;11.10;;
1276;SDS011;631;51.024;13.826;2023-12-28T09:27:20;11.57;;;11.07;;
1276;SDS011;631;51.024;13.826;2023-12-28T09:29:46;12.23;;;11.53;;
1276;SDS011;631;51.024;13.826;2023-12-28T09:32:11;10.53;;;10.03;;
1276;SDS011;631;51.024;13.826;2023-12-28T09:34:37;11.20;;;10.70;;
1276;SDS011;631;51.024;13.826;2023-12-28T09:37:02;11.57;;;10.97;;
1276;SDS011;631;51.024;13.826;2023-12-28T09:39:28;11.10;;;10.50;;
1276;SDS011;631;51.024;13.826;2023-12-28T09:42:16;10.87;;;10.27;;
1276;SDS011;631;51.024;13.826;2023-12-28T09:44:49;9.87;;;9.37;;
1276;SDS011;631;51.024;13.826;2023-12-28T09:47:15;11.37;;;10.80;;
1276;SDS011;631;51.024;13.826;2023-12-28T09:49:42;10.70;;;10.10;;
1276;SDS011;631;51.024;13.826;2023-12-28T09:52:09;11.00;;;10.47;;
1276;SDS011;631;51.024;13.826;2023-12-28T09:54:34;10.87;;;10.37;;
1276;SDS011;631;51.024;13.826;2023-12-28T09:57:00;11.20;;;10.70;;
1276;SDS011;631;51.024;13.826;2023-12-28T09:59:26;11.20;;;10.60;;
1276;SDS011;631;51.024;13.826;2023-12-28T10:01:53;10.60;;;10.10;;
1276;SDS011;631;51.024;13.826;2023-12-28T10:04:21;10.33;;;9.83;;
1276;SDS011;631;51.024;13.826;2023-12-28T10:06:47;10.77;;;10.27;;
1276;SDS011;631;51.024;13.826;2023-12-28T10:09:13;10.40;;;10.00;;
1276;SDS011;631;51.024;13.826;2023-12-28T10:11:38;10.70;;;10.20;;
1276;SDS011;631;51.024;13.826;2023-12-28T10:14:06;10.93;;;10.27;;
1276;SDS011;631;51.024;13.826;2023-12-28T10:16:32;9.93;;;9.43;;
1276;SDS011;631;51.024;13.826;2023-12-28T10:18:57;9.97;;;9.47;;
1276;SDS011;631;51.024;13.826;2023-12-28T10:21:23;10.30;;;9.80;;
1276;SDS011;631;51.024;13.826;2023-12-28T10:23:49;10.07;;;9.47;;
1276;SDS011;631;51.024;13.826;2023-12-28T10:26:17;10.30;;;9.80;;
1276;SDS011;631;51.024;13.826;2023-12-28T10:28:43;10.30;;;9.70;;
1276;SDS011;631;51.024;13.826;2023-12-28T10:31:09;11.00;;;10.40;;
1276;SDS011;631;51.024;13.826;2023-12-28T10:33:35;9.50;;;9.00;;
1276;SDS011;631;51.024;13.826;2023-12-28T10:36:04;10.30;;;9.80;;
1276;SDS011;631;51.024;13.826;2023-12-28T10:38:34;11.00;;;10.40;;
1276;SDS011;631;51.024;13.826;2023-12-28T10:41:07;10.83;;;10.23;;
1276;SDS011;631;51.024;13.826;2023-12-28T10:43:59;11.10;;;10.60;;
1276;SDS011;631;51.024;13.826;2023-12-28T10:46:30;11.47;;;10.87;;
1276;SDS011;631;51.024;13.826;2023-12-28T10:49:01;11.17;;;10.67;;
1276;SDS011;631;51.024;13.826;2023-12-28T10:51:40;10.87;;;10.37;;
1276;SDS011;631;51.024;13.826;2023-12-28T10:57:15;9.90;;;9.40;;
1276;SDS011;631;51.024;13.826;2023-12-28T11:02:21;10.73;;;10.23;;
1276;SDS011;631;51.024;13.826;2023-12-28T11:04:53;10.80;;;10.20;;
1276;SDS011;631;51.024;13.826;2023-12-28T11:07:20;10.03;;;9.53;;
1276;SDS011;631;51.024;13.826;2023-12-28T11:09:46;10.23;;;9.73;;
1276;SDS011;631;51.024;13.826;2023-12-28T11:12:13;11.00;;;10.50;;
1276;SDS011;631;51.024;13.826;2023-12-28T11:14:42;9.40;;;9.00;;
1276;SDS011;631;51.024;13.826;2023-12-28T11:17:09;9.57;;;9.07;;
1276;SDS011;631;51.024;13.826;2023-12-28T11:19:36;10.60;;;10.10;;
1276;SDS011;631;51.024;13.826;2023-12-28T11:22:02;10.00;;;9.50;;
1276;SDS011;631;51.024;13.826;2023-12-28T11:24:29;10.37;;;9.87;;
1276;SDS011;631;51.024;13.826;2023-12-28T11:26:55;10.73;;;10.13;;
1276;SDS011;631;51.024;13.826;2023-12-28T11:29:22;11.40;;;10.70;;
1276;SDS011;631;51.024;13.826;2023-12-28T11:31:57;10.60;;;10.10;;
1276;SDS011;631;51.024;13.826;2023-12-28T11:34:30;11.47;;;10.87;;
1276;SDS011;631;51.024;13.826;2023-12-28T11:37:02;10.63;;;10.13;;
1276;SDS011;631;51.024;13.826;2023-12-28T11:39:34;10.90;;;10.30;;
1276;SDS011;631;51.024;13.826;2023-12-28T11:42:01;11.13;;;10.60;;
1276;SDS011;631;51.024;13.826;2023-12-28T11:44:36;11.97;;;11.27;;
1276;SDS011;631;51.024;13.826;2023-12-28T11:47:13;11.73;;;11.10;;
1276;SDS011;631;51.024;13.826;2023-12-28T11:49:39;11.00;;;10.50;;
1276;SDS011;631;51.024;13.826;2023-12-28T11:52:09;12.33;;;11.63;;
1276;SDS011;631;51.024;13.826;2023-12-28T11:54:36;12.23;;;11.43;;
1276;SDS011;631;51.024;13.826;2023-12-28T11:57:02;12.77;;;11.90;;
1276;SDS011;631;51.024;13.826;2023-12-28T11:59:27;11.77;;;11.20;;
1276;SDS011;631;51.024;13.826;2023-12-28T12:01:53;12.70;;;12.00;;
1276;SDS011;631;51.024;13.826;2023-12-28T12:04:20;12.70;;;12.00;;
1276;SDS011;631;51.024;13.826;2023-12-28T12:06:46;16.13;;;14.93;;
1276;SDS011;631;51.024;13.826;2023-12-28T12:09:13;15.30;;;14.37;;
1276;SDS011;631;51.024;13.826;2023-12-28T12:11:39;14.60;;;13.50;;
1276;SDS011;631;51.024;13.826;2023-12-28T12:14:09;14.67;;;13.67;;
1276;SDS011;631;51.024;13.826;2023-12-28T12:16:35;13.70;;;12.80;;
1276;SDS011;631;51.024;13.826;2023-12-28T12:19:02;14.70;;;13.70;;
1276;SDS011;631;51.024;13.826;2023-12-28T12:21:29;14.73;;;13.83;;
1276;SDS011;631;51.024;13.826;2023-12-28T12:23:54;15.07;;;14.10;;
1276;SDS011;631;51.024;13.826;2023-12-28T12:26:20;14.20;;;13.30;;
1276;SDS011;631;51.024;13.826;2023-12-28T12:28:46;12.23;;;11.60;;
1276;SDS011;631;51.024;13.826;2023-12-28T12:31:13;11.53;;;10.93;;
1276;SDS011;631;51.024;13.826;2023-12-28T12:33:39;11.97;;;11.33;;
1276;SDS011;631;51.024;13.826;2023-12-28T12:36:05;12.70;;;11.90;;
1276;SDS011;631;51.024;13.826;2023-12-28T12:38:33;12.40;;;11.57;;
1276;SDS011;631;51.024;13.826;2023-12-28T12:40:59;12.20;;;10.90;;
1276;SDS011;631;51.024;13.826;2023-12-28T12:43:25;11.77;;;11.17;;
1276;SDS011;631;51.024;13.826;2023-12-28T12:45:52;11.10;;;10.50;;
1276;SDS011;631;51.024;13.826;2023-12-28T12:48:17;10.33;;;9.83;;
1276;SDS011;631;51.024;13.826;2023-12-28T12:50:43;10.60;;;10.10;;
1276;SDS011;631;51.024;13.826;2023-12-28T12:53:10;11.13;;;10.63;;
1276;SDS011;631;51.024;13.826;2023-12-28T12:55:36;10.77;;;10.27;;
1276;SDS011;631;51.024;13.826;2023-12-28T12:58:07;10.60;;;10.10;;
1276;SDS011;631;51.024;13.826;2023-12-28T13:00:37;11.37;;;10.77;;
1276;SDS011;631;51.024;13.826;2023-12-28T13:03:03;11.00;;;10.50;;
1276;SDS011;631;51.024;13.826;2023-12-28T13:05:34;10.67;;;10.17;;
1276;SDS011;631;51.024;13.826;2023-12-28T13:08:01;11.27;;;10.77;;
1276;SDS011;631;51.024;13.826;2023-12-28T13:10:26;11.63;;;11.00;;
1276;SDS011;631;51.024;13.826;2023-12-28T13:12:52;10.73;;;10.17;;
1276;SDS011;631;51.024;13.826;2023-12-28T13:15:19;11.27;;;10.77;;
1276;SDS011;631;51.024;13.826;2023-12-28T13:17:44;10.33;;;9.83;;
1276;SDS011;631;51.024;13.826;2023-12-28T13:20:11;11.37;;;10.77;;
1276;SDS011;631;51.024;13.826;2023-12-28T13:22:36;11.30;;;10.80;;
1276;SDS011;631;51.024;13.826;2023-12-28T13:25:02;11.17;;;10.57;;
1276;SDS011;631;51.024;13.826;2023-12-28T13:27:29;11.37;;;10.87;;
1276;SDS011;631;51.024;13.826;2023-12-28T13:29:56;11.30;;;10.77;;
1276;SDS011;631;51.024;13.826;2023-12-28T13:32:22;10.97;;;10.47;;
1276;SDS011;631;51.024;13.826;2023-12-28T13:34:48;11.77;;;11.27;;
1276;SDS011;631;51.024;13.826;2023-12-28T13:37:15;10.93;;;10.43;;
1276;SDS011;631;51.024;13.826;2023-12-28T13:39:41;11.80;;;11.20;;
1276;SDS011;631;51.024;13.826;2023-12-28T13:42:07;12.20;;;11.60;;
1276;SDS011;631;51.024;13.826;2023-12-28T13:44:33;11.40;;;10.90;;
1276;SDS011;631;51.024;13.826;2023-12-28T13:47:00;10.30;;;9.80;;
1276;SDS011;631;51.024;13.826;2023-12-28T13:49:30;11.10;;;10.60;;
1276;SDS011;631;51.024;13.826;2023-12-28T13:51:56;11.40;;;10.90;;
1276;SDS011;631;51.024;13.826;2023-12-28T13:54:22;10.43;;;10.03;;
1276;SDS011;631;51.024;13.826;2023-12-28T13:56:48;10.63;;;10.13;;
1276;SDS011;631;51.024;13.826;2023-12-28T13:59:13;11.07;;;10.57;;
1276;SDS011;631;51.024;13.826;2023-12-28T14:01:39;10.83;;;10.33;;
1276;SDS011;631;51.024;13.826;2023-12-28T14:04:05;11.70;;;11.20;;
1276;SDS011;631;51.024;13.826;2023-12-28T14:06:31;11.23;;;10.63;;
1276;SDS011;631;51.024;13.826;2023-12-28T14:08:57;11.40;;;10.90;;
1276;SDS011;631;51.024;13.826;2023-12-28T14:11:23;10.77;;;10.30;;
1276;SDS011;631;51.024;13.826;2023-12-28T14:13:49;11.47;;;10.77;;
1276;SDS011;631;51.024;13.826;2023-12-28T14:16:15;11.43;;;10.93;;
1276;SDS011;631;51.024;13.826;2023-12-28T14:18:40;10.90;;;10.40;;
1276;SDS011;631;51.024;13.826;2023-12-28T14:21:08;11.80;;;11.20;;
1276;SDS011;631;51.024;13.826;2023-12-28T14:23:34;12.43;;;11.83;;
1276;SDS011;631;51.024;13.826;2023-12-28T14:26:02;10.53;;;10.03;;
1276;SDS011;631;51.024;13.826;2023-12-28T14:28:29;10.67;;;10.17;;
1276;SDS011;631;51.024;13.826;2023-12-28T14:30:57;12.13;;;11.43;;
1276;SDS011;631;51.024;13.826;2023-12-28T14:33:23;11.07;;;10.57;;
1276;SDS011;631;51.024;13.826;2023-12-28T14:35:49;11.53;;;11.03;;
1276;SDS011;631;51.024;13.826;2023-12-28T14:38:15;11.10;;;10.50;;
1276;SDS011;631;51.024;13.826;2023-12-28T14:40:41;10.93;;;10.33;;
1276;SDS011;631;51.024;13.826;2023-12-28T14:43:06;10.73;;;10.23;;
1276;SDS011;631;51.024;13.826;2023-12-28T14:45:32;11.80;;;11.20;;
1276;SDS011;631;51.024;13.826;2023-12-28T14:47:57;10.50;;;10.00;;
1276;SDS011;631;51.024;13.826;2023-12-28T14:50:23;11.17;;;10.67;;
1276;SDS011;631;51.024;13.826;2023-12-28T14:52:48;11.10;;;10.60;;